sensor_id;sensor_type;location;lat;lon;timestamp;pressure;altitude;pressure_sealevel;temperature;humidity
53246;BME280;39569;51.090;-1.786;2023-01-15T00:01:28;99390.88;;;30.60;29.12
53246;BME280;39569;51.090;-1.786;2023-01-15T00:03:57;99390.63;;;30.53;29.35
53246;BME280;39569;51.090;-1.786;2023-01-15T00:06:27;99384.91;;;30.58;29.43
53246;BME280;39569;51.090;-1.786;2023-01-15T00:08:55;99380.28;;;30.50;29.08
53246;BME280;39569;51.090;-1.786;2023-01-15T00:11:22;99376.66;;;30.38;29.46
53246;BME280;39569;51.090;-1.786;2023-01-15T00:13:50;99375.84;;;30.37;29.30
53246;BME280;39569;51.090;-1.786;2023-01-15T00:16:22;99380.28;;;30.30;29.77
53246;BME280;39569;51.090;-1.786;2023-01-15T00:18:49;99386.00;;;30.25;29.64
53246;BME280;39569;51.090;-1.786;2023-01-15T00:21:17;99378.72;;;30.20;29.70
53246;BME280;39569;51.090;-1.786;2023-01-15T00:23:44;99381.91;;;30.10;29.56
53246;BME280;39569;51.090;-1.786;2023-01-15T00:26:31;99375.03;;;30.16;29.74
53246;BME280;39569;51.090;-1.786;2023-01-15T00:29:16;99389.22;;;30.06;29.73
53246;BME280;39569;51.090;-1.786;2023-01-15T00:31:49;99384.34;;;30.03;29.70
53246;BME280;39569;51.090;-1.786;2023-01-15T00:34:17;99389.25;;;29.97;29.95
53246;BME280;39569;51.090;-1.786;2023-01-15T00:36:44;99378.66;;;29.87;29.82
53246;BME280;39569;51.090;-1.786;2023-01-15T00:39:10;99371.66;;;29.90;29.78
53246;BME280;39569;51.090;-1.786;2023-01-15T00:41:39;99381.19;;;29.92;30.07
53246;BME280;39569;51.090;-1.786;2023-01-15T00:44:05;99367.03;;;29.82;30.16
53246;BME280;39569;51.090;-1.786;2023-01-15T00:46:32;99371.91;;;29.76;29.78
53246;BME280;39569;51.090;-1.786;2023-01-15T00:48:59;99361.72;;;29.68;29.75
53246;BME280;39569;51.090;-1.786;2023-01-15T00:51:26;99359.31;;;29.67;30.08
53246;BME280;39569;51.090;-1.786;2023-01-15T00:53:53;99360.50;;;29.57;30.40
53246;BME280;39569;51.090;-1.786;2023-01-15T00:56:19;99364.72;;;29.55;30.32
53246;BME280;39569;51.090;-1.786;2023-01-15T00:58:47;99358.91;;;29.56;30.08
53246;BME280;39569;51.090;-1.786;2023-01-15T01:01:14;99365.38;;;29.52;30.14
53246;BME280;39569;51.090;-1.786;2023-01-15T01:03:41;99356.19;;;29.48;30.06
53246;BME280;39569;51.090;-1.786;2023-01-15T01:06:13;99356.38;;;29.43;30.32
53246;BME280;39569;51.090;-1.786;2023-01-15T01:08:40;99359.81;;;29.40;30.29
53246;BME280;39569;51.090;-1.786;2023-01-15T01:11:08;99361.19;;;29.46;30.37
53246;BME280;39569;51.090;-1.786;2023-01-15T01:13:36;99360.72;;;29.44;30.03
53246;BME280;39569;51.090;-1.786;2023-01-15T01:16:20;99362.34;;;29.45;30.12
53246;BME280;39569;51.090;-1.786;2023-01-15T01:18:47;99371.53;;;29.20;30.46
53246;BME280;39569;51.090;-1.786;2023-01-15T01:21:14;99366.69;;;29.17;30.48
53246;BME280;39569;51.090;-1.786;2023-01-15T01:23:41;99362.19;;;29.12;30.66
53246;BME280;39569;51.090;-1.786;2023-01-15T01:26:08;99360.06;;;29.09;30.70
53246;BME280;39569;51.090;-1.786;2023-01-15T01:28:35;99358.78;;;29.15;30.39
53246;BME280;39569;51.090;-1.786;2023-01-15T01:31:05;99355.34;;;29.18;30.30
53246;BME280;39569;51.090;-1.786;2023-01-15T01:33:32;99365.56;;;29.09;30.43
53246;BME280;39569;51.090;-1.786;2023-01-15T01:35:59;99360.72;;;29.06;30.42
53246;BME280;39569;51.090;-1.786;2023-01-15T01:38:26;99363.63;;;29.01;30.54
53246;BME280;39569;51.090;-1.786;2023-01-15T01:40:53;99372.53;;;28.98;30.82
53246;BME280;39569;51.090;-1.786;2023-01-15T01:43:21;99372.69;;;29.01;30.57
53246;BME280;39569;51.090;-1.786;2023-01-15T01:45:48;99380.97;;;28.84;30.79
53246;BME280;39569;51.090;-1.786;2023-01-15T01:48:18;99379.84;;;28.94;30.56
53246;BME280;39569;51.090;-1.786;2023-01-15T01:50:47;99371.94;;;28.84;30.41
53246;BME280;39569;51.090;-1.786;2023-01-15T01:53:18;99374.03;;;28.87;30.71
53246;BME280;39569;51.090;-1.786;2023-01-15T01:55:45;99363.22;;;28.73;30.83
53246;BME280;39569;51.090;-1.786;2023-01-15T01:58:13;99378.41;;;28.79;30.46
53246;BME280;39569;51.090;-1.786;2023-01-15T02:00:43;99369.84;;;28.81;30.53
53246;BME280;39569;51.090;-1.786;2023-01-15T02:03:11;99380.06;;;28.63;30.81
53246;BME280;39569;51.090;-1.786;2023-01-15T02:05:43;99376.97;;;28.73;30.62
53246;BME280;39569;51.090;-1.786;2023-01-15T02:08:11;99384.44;;;28.64;30.73
53246;BME280;39569;51.090;-1.786;2023-01-15T02:10:38;99389.28;;;28.59;30.81
53246;BME280;39569;51.090;-1.786;2023-01-15T02:13:13;99382.16;;;28.66;30.49
53246;BME280;39569;51.090;-1.786;2023-01-15T02:15:44;99384.78;;;28.54;30.96
53246;BME280;39569;51.090;-1.786;2023-01-15T02:18:18;99387.66;;;28.66;30.29
53246;BME280;39569;51.090;-1.786;2023-01-15T02:20:50;99388.00;;;28.56;31.02
53246;BME280;39569;51.090;-1.786;2023-01-15T02:23:47;99385.75;;;28.58;30.48
53246;BME280;39569;51.090;-1.786;2023-01-15T02:29:36;99368.91;;;28.51;30.67
53246;BME280;39569;51.090;-1.786;2023-01-15T02:32:09;99368.25;;;28.46;30.69
53246;BME280;39569;51.090;-1.786;2023-01-15T02:34:39;99351.13;;;28.40;30.77
53246;BME280;39569;51.090;-1.786;2023-01-15T02:37:12;99354.38;;;28.34;30.71
53246;BME280;39569;51.090;-1.786;2023-01-15T02:39:41;99350.81;;;28.33;31.01
53246;BME280;39569;51.090;-1.786;2023-01-15T02:42:10;99353.25;;;28.26;31.15
53246;BME280;39569;51.090;-1.786;2023-01-15T02:44:43;99354.22;;;28.30;30.60
53246;BME280;39569;51.090;-1.786;2023-01-15T02:47:12;99351.94;;;28.24;30.81
53246;BME280;39569;51.090;-1.786;2023-01-15T02:49:40;99352.78;;;28.24;30.83
53246;BME280;39569;51.090;-1.786;2023-01-15T02:52:12;99372.66;;;28.21;30.95
53246;BME280;39569;51.090;-1.786;2023-01-15T02:54:42;99367.66;;;28.23;31.02
53246;BME280;39569;51.090;-1.786;2023-01-15T02:57:12;99384.59;;;28.25;30.91
53246;BME280;39569;51.090;-1.786;2023-01-15T02:59:44;99391.88;;;28.21;30.88
53246;BME280;39569;51.090;-1.786;2023-01-15T03:02:14;99384.75;;;28.20;30.60
53246;BME280;39569;51.090;-1.786;2023-01-15T03:04:47;99380.06;;;28.21;30.72
53246;BME280;39569;51.090;-1.786;2023-01-15T03:07:20;99362.28;;;28.18;30.79
53246;BME280;39569;51.090;-1.786;2023-01-15T03:09:49;99364.41;;;28.04;30.70
53246;BME280;39569;51.090;-1.786;2023-01-15T03:12:22;99379.75;;;28.13;30.84
53246;BME280;39569;51.090;-1.786;2023-01-15T03:14:59;99382.19;;;28.15;30.62
53246;BME280;39569;51.090;-1.786;2023-01-15T03:17:34;99388.00;;;28.13;30.64
53246;BME280;39569;51.090;-1.786;2023-01-15T03:20:05;99391.06;;;28.12;31.14
53246;BME280;39569;51.090;-1.786;2023-01-15T03:22:38;99387.97;;;28.05;30.84
53246;BME280;39569;51.090;-1.786;2023-01-15T03:25:10;99388.47;;;27.98;30.67
53246;BME280;39569;51.090;-1.786;2023-01-15T03:27:38;99377.66;;;27.93;30.60
53246;BME280;39569;51.090;-1.786;2023-01-15T03:30:09;99373.44;;;27.96;31.10
53246;BME280;39569;51.090;-1.786;2023-01-15T03:32:36;99376.16;;;27.87;31.07
53246;BME280;39569;51.090;-1.786;2023-01-15T03:35:05;99372.16;;;28.02;30.45
53246;BME280;39569;51.090;-1.786;2023-01-15T03:37:35;99379.06;;;27.91;30.54
53246;BME280;39569;51.090;-1.786;2023-01-15T03:40:03;99378.72;;;27.92;30.73
53246;BME280;39569;51.090;-1.786;2023-01-15T03:42:43;99378.59;;;27.97;30.58
53246;BME280;39569;51.090;-1.786;2023-01-15T03:45:16;99380.16;;;27.90;30.64
53246;BME280;39569;51.090;-1.786;2023-01-15T03:47:53;99387.94;;;27.88;30.94
53246;BME280;39569;51.090;-1.786;2023-01-15T03:50:28;99390.81;;;27.83;30.47
53246;BME280;39569;51.090;-1.786;2023-01-15T03:53:03;99375.00;;;27.80;30.71
53246;BME280;39569;51.090;-1.786;2023-01-15T03:55:37;99368.25;;;27.86;30.32
53246;BME280;39569;51.090;-1.786;2023-01-15T03:58:08;99363.69;;;27.90;30.60
53246;BME280;39569;51.090;-1.786;2023-01-15T04:00:41;99359.50;;;27.84;31.00
53246;BME280;39569;51.090;-1.786;2023-01-15T04:03:11;99356.25;;;27.73;30.46
53246;BME280;39569;51.090;-1.786;2023-01-15T04:05:41;99353.50;;;27.65;31.02
53246;BME280;39569;51.090;-1.786;2023-01-15T04:08:10;99350.25;;;27.63;30.70
53246;BME280;39569;51.090;-1.786;2023-01-15T04:10:49;99331.53;;;27.73;30.62
53246;BME280;39569;51.090;-1.786;2023-01-15T04:13:16;99330.06;;;27.59;30.93
53246;BME280;39569;51.090;-1.786;2023-01-15T04:15:44;99330.91;;;27.76;30.41
53246;BME280;39569;51.090;-1.786;2023-01-15T04:18:11;99326.53;;;27.67;30.59
53246;BME280;39569;51.090;-1.786;2023-01-15T04:20:38;99339.28;;;27.63;30.71
53246;BME280;39569;51.090;-1.786;2023-01-15T04:23:05;99336.22;;;27.64;30.27
53246;BME280;39569;51.090;-1.786;2023-01-15T04:25:31;99349.00;;;27.60;30.61
53246;BME280;39569;51.090;-1.786;2023-01-15T04:27:58;99347.03;;;27.61;30.51
53246;BME280;39569;51.090;-1.786;2023-01-15T04:30:25;99358.00;;;27.61;30.46
53246;BME280;39569;51.090;-1.786;2023-01-15T04:32:53;99337.84;;;27.65;30.83
53246;BME280;39569;51.090;-1.786;2023-01-15T04:35:20;99336.38;;;27.51;30.61
53246;BME280;39569;51.090;-1.786;2023-01-15T04:37:47;99337.66;;;27.53;30.92
53246;BME280;39569;51.090;-1.786;2023-01-15T04:40:14;99345.38;;;27.51;30.86
53246;BME280;39569;51.090;-1.786;2023-01-15T04:42:55;99334.25;;;27.48;30.96
53246;BME280;39569;51.090;-1.786;2023-01-15T04:45:36;99345.06;;;27.44;30.36
53246;BME280;39569;51.090;-1.786;2023-01-15T04:48:04;99338.28;;;27.50;30.39
53246;BME280;39569;51.090;-1.786;2023-01-15T04:50:31;99345.22;;;27.39;30.38
53246;BME280;39569;51.090;-1.786;2023-01-15T04:52:59;99345.84;;;27.36;30.46
53246;BME280;39569;51.090;-1.786;2023-01-15T04:55:26;99349.22;;;27.33;30.81
53246;BME280;39569;51.090;-1.786;2023-01-15T04:57:52;99333.25;;;27.35;30.94
53246;BME280;39569;51.090;-1.786;2023-01-15T05:00:20;99333.75;;;27.37;30.44
53246;BME280;39569;51.090;-1.786;2023-01-15T05:02:47;99331.31;;;27.36;30.44
53246;BME280;39569;51.090;-1.786;2023-01-15T05:05:15;99321.50;;;27.43;30.29
53246;BME280;39569;51.090;-1.786;2023-01-15T05:07:42;99318.19;;;27.24;30.35
53246;BME280;39569;51.090;-1.786;2023-01-15T05:10:09;99324.94;;;27.18;30.88
53246;BME280;39569;51.090;-1.786;2023-01-15T05:12:36;99325.91;;;27.13;31.02
53246;BME280;39569;51.090;-1.786;2023-01-15T05:15:04;99310.72;;;27.07;30.71
53246;BME280;39569;51.090;-1.786;2023-01-15T05:17:31;99310.84;;;27.02;31.24
53246;BME280;39569;51.090;-1.786;2023-01-15T05:19:58;99312.63;;;26.98;30.98
53246;BME280;39569;51.090;-1.786;2023-01-15T05:22:26;99321.81;;;27.02;31.13
53246;BME280;39569;51.090;-1.786;2023-01-15T05:24:52;99303.53;;;26.89;31.29
53246;BME280;39569;51.090;-1.786;2023-01-15T05:27:19;99309.53;;;26.91;30.72
53246;BME280;39569;51.090;-1.786;2023-01-15T05:29:46;99286.47;;;26.92;30.80
53246;BME280;39569;51.090;-1.786;2023-01-15T05:32:13;99283.72;;;26.92;31.19
53246;BME280;39569;51.090;-1.786;2023-01-15T05:34:40;99272.59;;;26.89;30.62
53246;BME280;39569;51.090;-1.786;2023-01-15T05:37:06;99274.81;;;26.87;31.11
53246;BME280;39569;51.090;-1.786;2023-01-15T05:39:34;99265.66;;;26.91;31.23
53246;BME280;39569;51.090;-1.786;2023-01-15T05:42:01;99266.59;;;26.78;30.84
53246;BME280;39569;51.090;-1.786;2023-01-15T05:44:28;99265.94;;;26.81;30.60
53246;BME280;39569;51.090;-1.786;2023-01-15T05:46:58;99254.22;;;26.89;30.63
53246;BME280;39569;51.090;-1.786;2023-01-15T05:49:27;99243.56;;;26.88;30.52
53246;BME280;39569;51.090;-1.786;2023-01-15T05:51:56;99252.59;;;26.88;30.63
53246;BME280;39569;51.090;-1.786;2023-01-15T05:54:26;99257.09;;;26.84;30.86
53246;BME280;39569;51.090;-1.786;2023-01-15T05:56:54;99255.94;;;26.77;30.76
53246;BME280;39569;51.090;-1.786;2023-01-15T05:59:23;99240.13;;;26.74;31.18
53246;BME280;39569;51.090;-1.786;2023-01-15T06:01:51;99248.59;;;26.64;31.24
53246;BME280;39569;51.090;-1.786;2023-01-15T06:04:18;99254.88;;;26.64;30.66
53246;BME280;39569;51.090;-1.786;2023-01-15T06:06:46;99252.31;;;26.68;30.73
53246;BME280;39569;51.090;-1.786;2023-01-15T06:09:14;99244.03;;;26.81;31.13
53246;BME280;39569;51.090;-1.786;2023-01-15T06:11:41;99240.97;;;26.83;30.37
53246;BME280;39569;51.090;-1.786;2023-01-15T06:14:10;99246.25;;;26.79;30.88
53246;BME280;39569;51.090;-1.786;2023-01-15T06:16:38;99258.22;;;26.83;30.53
53246;BME280;39569;51.090;-1.786;2023-01-15T06:19:06;99257.47;;;27.00;30.85
53246;BME280;39569;51.090;-1.786;2023-01-15T06:21:34;99253.13;;;27.07;30.42
53246;BME280;39569;51.090;-1.786;2023-01-15T06:24:01;99258.47;;;27.12;30.34
53246;BME280;39569;51.090;-1.786;2023-01-15T06:26:28;99265.25;;;27.23;30.12
53246;BME280;39569;51.090;-1.786;2023-01-15T06:28:55;99257.75;;;27.46;29.85
53246;BME280;39569;51.090;-1.786;2023-01-15T06:31:24;99245.00;;;27.59;29.81
53246;BME280;39569;51.090;-1.786;2023-01-15T06:33:52;99233.75;;;27.60;30.19
53246;BME280;39569;51.090;-1.786;2023-01-15T06:36:21;99237.59;;;27.85;29.61
53246;BME280;39569;51.090;-1.786;2023-01-15T06:38:48;99231.31;;;27.93;29.60
53246;BME280;39569;51.090;-1.786;2023-01-15T06:41:17;99227.25;;;28.07;29.69
53246;BME280;39569;51.090;-1.786;2023-01-15T06:44:02;99220.16;;;28.15;29.20
53246;BME280;39569;51.090;-1.786;2023-01-15T06:46:48;99215.25;;;28.38;29.23
53246;BME280;39569;51.090;-1.786;2023-01-15T06:49:34;99218.47;;;28.40;29.18
53246;BME280;39569;51.090;-1.786;2023-01-15T06:52:02;99228.63;;;28.56;28.91
53246;BME280;39569;51.090;-1.786;2023-01-15T06:54:30;99221.28;;;28.69;28.96
53246;BME280;39569;51.090;-1.786;2023-01-15T06:56:57;99230.31;;;28.78;28.77
53246;BME280;39569;51.090;-1.786;2023-01-15T06:59:24;99221.72;;;29.08;28.33
53246;BME280;39569;51.090;-1.786;2023-01-15T07:01:52;99219.38;;;29.28;28.09
53246;BME280;39569;51.090;-1.786;2023-01-15T07:04:19;99222.13;;;29.28;28.24
53246;BME280;39569;51.090;-1.786;2023-01-15T07:06:45;99220.94;;;29.08;28.48
53246;BME280;39569;51.090;-1.786;2023-01-15T07:09:12;99220.91;;;29.17;28.21
53246;BME280;39569;51.090;-1.786;2023-01-15T07:11:39;99218.28;;;29.20;28.22
53246;BME280;39569;51.090;-1.786;2023-01-15T07:14:14;99218.91;;;29.26;28.42
53246;BME280;39569;51.090;-1.786;2023-01-15T07:16:41;99220.66;;;29.30;28.23
53246;BME280;39569;51.090;-1.786;2023-01-15T07:19:09;99223.81;;;29.41;28.30
53246;BME280;39569;51.090;-1.786;2023-01-15T07:21:36;99222.34;;;29.43;28.11
53246;BME280;39569;51.090;-1.786;2023-01-15T07:24:03;99225.97;;;29.56;28.20
53246;BME280;39569;51.090;-1.786;2023-01-15T07:26:30;99218.19;;;29.58;27.63
53246;BME280;39569;51.090;-1.786;2023-01-15T07:28:57;99219.31;;;29.57;28.29
53246;BME280;39569;51.090;-1.786;2023-01-15T07:31:24;99220.25;;;29.61;27.92
53246;BME280;39569;51.090;-1.786;2023-01-15T07:33:51;99222.78;;;29.74;27.78
53246;BME280;39569;51.090;-1.786;2023-01-15T07:36:19;99218.13;;;29.87;27.90
53246;BME280;39569;51.090;-1.786;2023-01-15T07:38:46;99221.91;;;29.82;27.89
53246;BME280;39569;51.090;-1.786;2023-01-15T07:41:13;99223.41;;;29.92;28.21
53246;BME280;39569;51.090;-1.786;2023-01-15T07:43:57;99211.47;;;29.88;27.70
53246;BME280;39569;51.090;-1.786;2023-01-15T07:46:46;99225.97;;;29.97;27.79
53246;BME280;39569;51.090;-1.786;2023-01-15T07:49:31;99227.03;;;30.05;27.72
53246;BME280;39569;51.090;-1.786;2023-01-15T07:52:16;99223.41;;;30.25;27.19
53246;BME280;39569;51.090;-1.786;2023-01-15T07:54:43;99217.09;;;30.24;27.46
53246;BME280;39569;51.090;-1.786;2023-01-15T07:57:13;99225.16;;;30.29;27.56
53246;BME280;39569;51.090;-1.786;2023-01-15T07:59:40;99223.91;;;30.27;27.64
53246;BME280;39569;51.090;-1.786;2023-01-15T08:02:07;99222.66;;;30.36;27.51
53246;BME280;39569;51.090;-1.786;2023-01-15T08:04:34;99209.56;;;30.33;27.50
53246;BME280;39569;51.090;-1.786;2023-01-15T08:07:02;99222.59;;;30.69;27.31
53246;BME280;39569;51.090;-1.786;2023-01-15T08:09:30;99226.72;;;30.63;27.12
53246;BME280;39569;51.090;-1.786;2023-01-15T08:11:58;99228.09;;;30.57;27.04
53246;BME280;39569;51.090;-1.786;2023-01-15T08:14:42;99238.34;;;30.56;27.03
53246;BME280;39569;51.090;-1.786;2023-01-15T08:17:27;99238.22;;;30.65;27.11
53246;BME280;39569;51.090;-1.786;2023-01-15T08:19:54;99243.16;;;30.71;27.34
53246;BME280;39569;51.090;-1.786;2023-01-15T08:22:20;99248.00;;;30.74;26.94
53246;BME280;39569;51.090;-1.786;2023-01-15T08:24:48;99255.22;;;30.79;26.85
53246;BME280;39569;51.090;-1.786;2023-01-15T08:27:15;99245.72;;;30.76;26.94
53246;BME280;39569;51.090;-1.786;2023-01-15T08:29:42;99238.78;;;30.70;27.53
53246;BME280;39569;51.090;-1.786;2023-01-15T08:32:09;99237.53;;;30.80;26.76
53246;BME280;39569;51.090;-1.786;2023-01-15T08:34:35;99239.06;;;30.89;26.83
53246;BME280;39569;51.090;-1.786;2023-01-15T08:37:02;99251.47;;;30.95;27.22
53246;BME280;39569;51.090;-1.786;2023-01-15T08:39:29;99248.59;;;30.92;26.71
53246;BME280;39569;51.090;-1.786;2023-01-15T08:41:57;99249.19;;;31.10;27.25
53246;BME280;39569;51.090;-1.786;2023-01-15T08:44:24;99238.72;;;31.03;26.69
53246;BME280;39569;51.090;-1.786;2023-01-15T08:46:52;99243.78;;;31.13;26.58
53246;BME280;39569;51.090;-1.786;2023-01-15T08:49:19;99247.00;;;31.15;27.01
53246;BME280;39569;51.090;-1.786;2023-01-15T08:51:47;99250.56;;;31.16;26.86
53246;BME280;39569;51.090;-1.786;2023-01-15T08:54:17;99246.28;;;31.18;26.98
53246;BME280;39569;51.090;-1.786;2023-01-15T08:56:44;99255.94;;;31.12;26.83
53246;BME280;39569;51.090;-1.786;2023-01-15T08:59:12;99262.03;;;31.18;26.88
53246;BME280;39569;51.090;-1.786;2023-01-15T09:01:41;99271.38;;;31.13;26.64
53246;BME280;39569;51.090;-1.786;2023-01-15T09:04:09;99277.13;;;31.08;26.76
53246;BME280;39569;51.090;-1.786;2023-01-15T09:06:38;99277.91;;;31.09;26.68
53246;BME280;39569;51.090;-1.786;2023-01-15T09:09:05;99281.84;;;31.08;26.68
53246;BME280;39569;51.090;-1.786;2023-01-15T09:11:32;99286.44;;;31.04;27.18
53246;BME280;39569;51.090;-1.786;2023-01-15T09:13:59;99283.97;;;30.78;27.30
53246;BME280;39569;51.090;-1.786;2023-01-15T09:16:27;99291.78;;;30.76;27.42
53246;BME280;39569;51.090;-1.786;2023-01-15T09:18:56;99301.63;;;30.65;27.31
53246;BME280;39569;51.090;-1.786;2023-01-15T09:21:23;99303.16;;;30.74;27.62
53246;BME280;39569;51.090;-1.786;2023-01-15T09:23:49;99306.78;;;30.54;27.92
53246;BME280;39569;51.090;-1.786;2023-01-15T09:26:25;99315.44;;;30.77;27.41
53246;BME280;39569;51.090;-1.786;2023-01-15T09:28:53;99306.56;;;30.71;27.57
53246;BME280;39569;51.090;-1.786;2023-01-15T09:31:20;99306.44;;;30.68;27.11
53246;BME280;39569;51.090;-1.786;2023-01-15T09:33:49;99305.31;;;30.69;27.24
53246;BME280;39569;51.090;-1.786;2023-01-15T09:36:16;99303.91;;;30.51;27.07
53246;BME280;39569;51.090;-1.786;2023-01-15T09:38:43;99317.88;;;30.46;27.60
53246;BME280;39569;51.090;-1.786;2023-01-15T09:41:12;99311.94;;;30.23;27.56
53246;BME280;39569;51.090;-1.786;2023-01-15T09:43:58;99323.13;;;30.18;28.22
53246;BME280;39569;51.090;-1.786;2023-01-15T09:46:34;99322.31;;;30.26;27.78
53246;BME280;39569;51.090;-1.786;2023-01-15T09:49:14;99323.41;;;30.25;28.12
53246;BME280;39569;51.090;-1.786;2023-01-15T09:51:51;99323.97;;;30.19;28.06
53246;BME280;39569;51.090;-1.786;2023-01-15T09:54:30;99319.25;;;30.19;27.67
53246;BME280;39569;51.090;-1.786;2023-01-15T09:57:00;99317.13;;;30.04;27.57
53246;BME280;39569;51.090;-1.786;2023-01-15T09:59:31;99328.59;;;30.06;27.86
53246;BME280;39569;51.090;-1.786;2023-01-15T10:01:59;99332.91;;;29.74;28.51
53246;BME280;39569;51.090;-1.786;2023-01-15T10:04:37;99335.31;;;29.96;28.00
53246;BME280;39569;51.090;-1.786;2023-01-15T10:07:12;99330.63;;;29.97;28.35
53246;BME280;39569;51.090;-1.786;2023-01-15T10:09:43;99340.88;;;30.09;27.99
53246;BME280;39569;51.090;-1.786;2023-01-15T10:12:16;99347.47;;;29.95;28.09
53246;BME280;39569;51.090;-1.786;2023-01-15T10:15:13;99346.41;;;29.88;28.42
53246;BME280;39569;51.090;-1.786;2023-01-15T10:17:42;99356.97;;;29.86;28.28
53246;BME280;39569;51.090;-1.786;2023-01-15T10:20:15;99367.63;;;29.87;28.53
53246;BME280;39569;51.090;-1.786;2023-01-15T10:22:50;99359.50;;;29.91;28.23
53246;BME280;39569;51.090;-1.786;2023-01-15T10:25:27;99357.88;;;29.90;28.01
53246;BME280;39569;51.090;-1.786;2023-01-15T10:27:58;99356.63;;;29.87;27.92
53246;BME280;39569;51.090;-1.786;2023-01-15T10:30:35;99365.50;;;29.93;28.52
53246;BME280;39569;51.090;-1.786;2023-01-15T10:33:18;99363.38;;;29.90;31.55
53246;BME280;39569;51.090;-1.786;2023-01-15T10:35:53;99366.44;;;29.97;32.84
53246;BME280;39569;51.090;-1.786;2023-01-15T10:38:27;99364.16;;;29.99;32.64
53246;BME280;39569;51.090;-1.786;2023-01-15T10:41:11;99364.94;;;29.99;33.20
53246;BME280;39569;51.090;-1.786;2023-01-15T10:43:47;99378.22;;;29.97;34.10
53246;BME280;39569;51.090;-1.786;2023-01-15T10:46:17;99367.50;;;29.84;34.52
53246;BME280;39569;51.090;-1.786;2023-01-15T10:48:46;99377.03;;;29.86;34.84
53246;BME280;39569;51.090;-1.786;2023-01-15T10:51:18;99378.66;;;29.87;35.13
53246;BME280;39569;51.090;-1.786;2023-01-15T10:53:49;99368.00;;;29.77;35.48
53246;BME280;39569;51.090;-1.786;2023-01-15T10:56:21;99360.38;;;29.83;35.40
53246;BME280;39569;51.090;-1.786;2023-01-15T10:58:57;99357.81;;;29.78;35.73
53246;BME280;39569;51.090;-1.786;2023-01-15T11:01:30;99355.94;;;29.61;36.34
53246;BME280;39569;51.090;-1.786;2023-01-15T11:03:56;99354.84;;;29.54;36.15
53246;BME280;39569;51.090;-1.786;2023-01-15T11:06:30;99360.16;;;29.59;36.43
53246;BME280;39569;51.090;-1.786;2023-01-15T11:08:58;99351.34;;;29.45;36.46
53246;BME280;39569;51.090;-1.786;2023-01-15T11:11:29;99349.69;;;29.52;36.67
53246;BME280;39569;51.090;-1.786;2023-01-15T11:14:15;99362.38;;;29.36;36.58
53246;BME280;39569;51.090;-1.786;2023-01-15T11:17:00;99353.00;;;29.37;36.67
53246;BME280;39569;51.090;-1.786;2023-01-15T11:19:45;99343.16;;;29.28;36.99
53246;BME280;39569;51.090;-1.786;2023-01-15T11:22:15;99343.59;;;29.38;36.87
53246;BME280;39569;51.090;-1.786;2023-01-15T11:24:47;99326.16;;;29.34;37.10
53246;BME280;39569;51.090;-1.786;2023-01-15T11:27:18;99326.53;;;29.24;37.24
53246;BME280;39569;51.090;-1.786;2023-01-15T11:29:50;99313.75;;;29.20;37.19
53246;BME280;39569;51.090;-1.786;2023-01-15T11:32:21;99324.13;;;29.14;37.65
53246;BME280;39569;51.090;-1.786;2023-01-15T11:34:53;99324.31;;;29.18;37.75
53246;BME280;39569;51.090;-1.786;2023-01-15T11:37:21;99321.88;;;29.16;38.05
53246;BME280;39569;51.090;-1.786;2023-01-15T11:39:53;99318.47;;;29.10;38.17
53246;BME280;39569;51.090;-1.786;2023-01-15T11:42:20;99316.72;;;28.97;38.14
53246;BME280;39569;51.090;-1.786;2023-01-15T11:45:12;99313.28;;;29.09;38.00
53246;BME280;39569;51.090;-1.786;2023-01-15T11:47:57;99311.09;;;28.94;38.32
53246;BME280;39569;51.090;-1.786;2023-01-15T11:50:49;99308.00;;;29.04;38.37
53246;BME280;39569;51.090;-1.786;2023-01-15T11:53:20;99303.94;;;29.01;38.68
53246;BME280;39569;51.090;-1.786;2023-01-15T11:55:54;99305.25;;;28.95;38.62
53246;BME280;39569;51.090;-1.786;2023-01-15T11:58:26;99291.88;;;28.85;38.74
53246;BME280;39569;51.090;-1.786;2023-01-15T12:00:53;99299.50;;;28.80;38.84
53246;BME280;39569;51.090;-1.786;2023-01-15T12:03:24;99291.06;;;28.85;39.13
53246;BME280;39569;51.090;-1.786;2023-01-15T12:05:56;99291.41;;;28.83;38.79
53246;BME280;39569;51.090;-1.786;2023-01-15T12:08:41;99289.47;;;28.84;38.79
53246;BME280;39569;51.090;-1.786;2023-01-15T12:14:10;99279.94;;;28.81;39.13
53246;BME280;39569;51.090;-1.786;2023-01-15T12:16:45;99270.44;;;28.70;38.86
53246;BME280;39569;51.090;-1.786;2023-01-15T12:19:18;99264.94;;;28.70;39.31
53246;BME280;39569;51.090;-1.786;2023-01-15T12:22:07;99268.16;;;28.72;39.45
53246;BME280;39569;51.090;-1.786;2023-01-15T12:24:48;99262.34;;;28.74;39.46
53246;BME280;39569;51.090;-1.786;2023-01-15T12:27:39;99262.03;;;28.67;39.58
53246;BME280;39569;51.090;-1.786;2023-01-15T12:30:19;99256.50;;;28.75;39.44
53246;BME280;39569;51.090;-1.786;2023-01-15T12:32:51;99239.88;;;28.72;39.28
53246;BME280;39569;51.090;-1.786;2023-01-15T12:35:28;99242.13;;;28.70;39.37
53246;BME280;39569;51.090;-1.786;2023-01-15T12:37:57;99243.47;;;28.64;39.30
53246;BME280;39569;51.090;-1.786;2023-01-15T12:40:32;99240.88;;;28.67;39.54
53246;BME280;39569;51.090;-1.786;2023-01-15T12:43:12;99239.91;;;28.63;39.43
53246;BME280;39569;51.090;-1.786;2023-01-15T12:46:00;99235.88;;;28.52;40.10
53246;BME280;39569;51.090;-1.786;2023-01-15T12:48:32;99234.75;;;28.53;39.75
53246;BME280;39569;51.090;-1.786;2023-01-15T12:51:04;99224.25;;;28.47;39.98
53246;BME280;39569;51.090;-1.786;2023-01-15T12:53:36;99218.09;;;28.50;39.88
53246;BME280;39569;51.090;-1.786;2023-01-15T12:56:13;99218.75;;;28.55;39.78
53246;BME280;39569;51.090;-1.786;2023-01-15T12:58:46;99216.34;;;28.54;40.02
53246;BME280;39569;51.090;-1.786;2023-01-15T13:01:20;99218.28;;;28.45;40.32
53246;BME280;39569;51.090;-1.786;2023-01-15T13:03:59;99208.75;;;28.42;40.32
53246;BME280;39569;51.090;-1.786;2023-01-15T13:06:31;99199.53;;;28.38;40.00
53246;BME280;39569;51.090;-1.786;2023-01-15T13:09:01;99195.34;;;28.41;40.10
53246;BME280;39569;51.090;-1.786;2023-01-15T13:11:31;99192.88;;;28.48;40.46
53246;BME280;39569;51.090;-1.786;2023-01-15T13:13:58;99193.91;;;28.35;40.59
53246;BME280;39569;51.090;-1.786;2023-01-15T13:16:39;99196.78;;;28.47;40.36